createdAt,value
2022-10-19T00:05:31.964Z,12.02
2022-10-19T00:12:17.436Z,12.60
2022-10-19T00:19:09.100Z,12.17
2022-10-19T00:26:01.115Z,12.35
2022-10-19T00:32:46.579Z,12.30
2022-10-19T00:39:34.559Z,10.90
2022-10-19T00:46:19.945Z,11.30
2022-10-19T00:53:06.458Z,11.00
2022-10-19T00:59:55.115Z,10.50
2022-10-19T01:06:42.055Z,10.60
2022-10-19T01:13:44.275Z,10.52
2022-10-19T01:20:59.884Z,11.20
2022-10-19T01:28:03.195Z,12.38
2022-10-19T01:34:57.580Z,11.48
2022-10-19T01:41:52.848Z,12.20
2022-10-19T01:48:41.973Z,11.90
2022-10-19T01:55:31.000Z,12.07
2022-10-19T02:02:18.593Z,11.75
2022-10-19T02:09:04.039Z,11.60
2022-10-19T02:15:57.440Z,11.33
2022-10-19T02:22:43.569Z,10.85
2022-10-19T02:29:29.033Z,11.50
2022-10-19T02:36:17.174Z,10.53
2022-10-19T02:43:08.576Z,9.57
2022-10-19T03:03:44.682Z,9.80
2022-10-19T03:10:30.045Z,9.57
2022-10-19T03:17:15.675Z,9.67
2022-10-19T03:24:04.841Z,9.63
2022-10-19T03:30:52.177Z,10.00
2022-10-19T03:37:37.709Z,9.38
2022-10-19T03:44:25.726Z,9.33
2022-10-19T03:51:13.439Z,9.27
2022-10-19T03:57:58.784Z,9.10
2022-10-19T04:04:46.733Z,8.90
2022-10-19T04:11:35.125Z,8.40
2022-10-19T04:18:20.530Z,8.70
2022-10-19T04:25:14.021Z,9.20
2022-10-19T04:31:59.416Z,9.80
2022-10-19T04:38:44.947Z,11.23
2022-10-19T04:45:33.019Z,9.37
2022-10-19T04:52:19.013Z,9.30
2022-10-19T04:59:04.968Z,8.93
2022-10-19T05:05:53.637Z,16.80
2022-10-19T05:12:40.075Z,9.48
2022-10-19T05:19:25.469Z,9.25
2022-10-19T05:26:17.369Z,9.93
2022-10-19T05:33:03.110Z,13.05
2022-10-19T05:39:48.513Z,14.02
2022-10-19T05:46:37.590Z,16.30
2022-10-19T05:53:22.977Z,15.30
2022-10-19T06:00:09.756Z,15.30
2022-10-19T06:06:59.753Z,13.80
2022-10-19T06:13:47.426Z,14.35
2022-10-19T06:20:32.777Z,14.27
2022-10-19T06:27:20.794Z,13.90
2022-10-19T06:34:06.887Z,14.98
2022-10-19T06:40:52.261Z,13.25
2022-10-19T06:47:40.907Z,13.70
2022-10-19T06:54:26.825Z,13.65
2022-10-19T07:01:15.495Z,14.00
2022-10-19T07:08:03.610Z,14.30
2022-10-19T07:14:49.040Z,14.35
2022-10-19T07:21:40.779Z,14.30
2022-10-19T07:28:28.787Z,13.85
2022-10-19T07:35:14.160Z,12.77
2022-10-19T07:41:59.474Z,13.60
2022-10-19T07:48:48.332Z,13.63
2022-10-19T07:55:33.680Z,13.70
2022-10-19T08:02:20.998Z,12.80
2022-10-19T08:09:11.311Z,13.48
2022-10-19T08:16:01.005Z,14.45
2022-10-19T08:22:46.921Z,13.30
2022-10-19T08:29:35.163Z,14.60
2022-10-19T08:36:21.781Z,14.35
2022-10-19T08:43:18.756Z,14.32
2022-10-19T08:50:18.033Z,14.27
2022-10-19T08:57:15.801Z,14.02
2022-10-19T09:04:07.753Z,15.18
2022-10-19T09:10:57.880Z,13.73
2022-10-19T09:17:43.229Z,13.27
2022-10-19T09:24:36.852Z,12.50
2022-10-19T09:31:31.834Z,12.25
2022-10-19T09:38:19.881Z,11.37
2022-10-19T09:45:16.527Z,11.35
2022-10-19T09:52:04.737Z,11.63
2022-10-19T09:58:54.860Z,10.35
2022-10-19T10:05:42.584Z,10.57
2022-10-19T10:12:31.013Z,10.10
2022-10-19T10:19:22.237Z,10.60
2022-10-19T10:26:19.483Z,10.77
2022-10-19T10:33:16.021Z,10.38
2022-10-19T10:40:25.095Z,10.82
2022-10-19T10:47:20.467Z,11.10
2022-10-19T10:54:27.700Z,11.98
2022-10-19T11:01:23.742Z,12.75
2022-10-19T11:08:23.968Z,11.20
2022-10-19T11:15:23.841Z,10.93
2022-10-19T11:22:24.954Z,10.32
2022-10-19T11:29:46.576Z,9.82
2022-10-19T11:36:51.841Z,9.40
2022-10-19T11:43:49.357Z,8.60
2022-10-19T11:50:53.863Z,7.90
2022-10-19T11:57:55.830Z,6.90
2022-10-19T12:04:55.393Z,7.13
2022-10-19T12:11:59.804Z,6.32
2022-10-19T12:18:52.238Z,6.68
2022-10-19T12:25:40.961Z,6.50
2022-10-19T12:32:28.594Z,6.63
2022-10-19T12:39:27.686Z,6.90
2022-10-19T12:46:27.215Z,6.80
2022-10-19T13:00:38.110Z,6.60
2022-10-19T13:07:24.445Z,6.97
2022-10-19T13:21:03.900Z,7.05
2022-10-19T13:27:50.640Z,8.13
2022-10-19T13:34:36.215Z,8.63
2022-10-19T13:41:27.847Z,7.70
2022-10-19T13:48:24.841Z,9.25
2022-10-19T13:55:46.559Z,8.23
2022-10-19T14:03:06.627Z,8.50
2022-10-19T14:10:13.418Z,8.43
2022-10-19T14:17:03.857Z,7.47
2022-10-19T14:23:53.245Z,7.38
2022-10-19T14:30:40.036Z,7.38
2022-10-19T14:37:28.715Z,7.60
2022-10-19T14:44:39.738Z,6.72
2022-10-19T14:51:37.958Z,6.88
2022-10-19T14:58:27.157Z,7.78
2022-10-19T15:05:24.775Z,7.38
2022-10-19T15:12:16.579Z,6.53
2022-10-19T15:19:07.408Z,8.38
2022-10-19T15:26:09.667Z,7.40
2022-10-19T15:33:17.680Z,7.13
2022-10-19T15:40:03.066Z,7.63
2022-10-19T15:47:18.884Z,7.77
2022-10-19T15:54:06.497Z,7.90
2022-10-19T16:00:51.956Z,8.48
2022-10-19T16:07:43.383Z,8.93
2022-10-19T16:14:31.960Z,9.40
2022-10-19T16:21:22.230Z,9.68
2022-10-19T16:28:10.265Z,10.30
2022-10-19T16:34:55.647Z,9.95
2022-10-19T16:41:41.071Z,10.73
2022-10-19T16:48:29.169Z,10.43
2022-10-19T16:55:15.142Z,12.77
2022-10-19T17:02:00.525Z,10.48
2022-10-19T17:09:29.921Z,10.60
2022-10-19T17:15:55.805Z,10.23
2022-10-19T17:22:41.112Z,10.67
2022-10-19T17:29:29.128Z,11.27
2022-10-19T17:36:18.895Z,11.13
2022-10-19T17:43:05.051Z,11.80
2022-10-19T17:49:53.073Z,11.95
2022-10-19T17:56:41.794Z,12.10
2022-10-19T18:03:28.792Z,12.88
2022-10-19T18:10:16.804Z,12.45
2022-10-19T18:17:03.303Z,12.50
2022-10-19T18:23:49.037Z,12.70
2022-10-19T18:30:39.225Z,12.07
2022-10-19T18:37:24.613Z,11.75
2022-10-19T18:44:13.922Z,11.73
2022-10-19T18:51:06.801Z,11.93
2022-10-19T18:57:52.187Z,11.23
2022-10-19T19:04:39.513Z,12.17
2022-10-19T19:11:31.740Z,12.20
2022-10-19T19:18:19.773Z,12.30
2022-10-19T19:25:05.229Z,12.18
2022-10-19T19:31:53.495Z,12.15
2022-10-19T19:38:39.623Z,11.55
2022-10-19T19:45:24.976Z,12.43
2022-10-19T19:52:13.142Z,12.05
2022-10-19T19:59:00.119Z,11.75
2022-10-19T20:05:46.817Z,11.18
2022-10-19T20:12:34.803Z,12.20
2022-10-19T20:19:20.224Z,12.00
2022-10-19T20:26:09.022Z,13.38
2022-10-19T20:32:59.737Z,12.27
2022-10-19T20:39:45.098Z,12.75
2022-10-19T20:46:32.561Z,12.82
2022-10-19T20:53:20.595Z,11.80
2022-10-19T21:00:06.345Z,11.98
2022-10-19T21:06:53.510Z,12.10
2022-10-19T21:13:41.509Z,11.45
2022-10-19T21:20:26.868Z,12.05
2022-10-19T21:27:14.200Z,12.13
2022-10-19T21:34:02.212Z,11.93
2022-10-19T21:40:47.589Z,11.48
2022-10-19T21:47:33.437Z,12.65
2022-10-19T21:54:24.843Z,12.55
2022-10-19T22:01:11.587Z,12.05
2022-10-19T22:14:45.315Z,12.00
2022-10-19T22:21:33.115Z,13.20
2022-10-19T22:28:18.523Z,12.63
2022-10-19T22:35:07.946Z,12.65
2022-10-19T22:41:53.315Z,12.68
2022-10-19T22:48:38.689Z,12.48
2022-10-19T22:55:26.649Z,12.05
2022-10-19T23:02:12.012Z,11.73
2022-10-19T23:08:57.798Z,11.80
2022-10-19T23:15:46.106Z,11.60
2022-10-19T23:22:31.460Z,12.35
2022-10-19T23:29:17.453Z,12.15
2022-10-19T23:36:11.173Z,12.97
2022-10-19T23:42:56.537Z,13.52
2022-10-19T23:49:41.939Z,12.25
2022-10-19T23:56:32.565Z,12.50
